sensor_id;sensor_type;location;lat;lon;timestamp;P1;durP1;ratioP1;P2;durP2;ratioP2
16543;SDS011;8384;47.996;7.786;2023-11-21T00:02:24;5.57;;;1.98;;
16543;SDS011;8384;47.996;7.786;2023-11-21T00:04:50;6.80;;;2.10;;
16543;SDS011;8384;47.996;7.786;2023-11-21T00:07:15;7.45;;;2.20;;
16543;SDS011;8384;47.996;7.786;2023-11-21T00:09:41;6.63;;;2.07;;
16543;SDS011;8384;47.996;7.786;2023-11-21T00:12:06;7.50;;;2.50;;
16543;SDS011;8384;47.996;7.786;2023-11-21T00:14:35;6.13;;;2.25;;
16543;SDS011;8384;47.996;7.786;2023-11-21T00:17:06;7.13;;;2.30;;
16543;SDS011;8384;47.996;7.786;2023-11-21T00:19:31;7.70;;;2.40;;
16543;SDS011;8384;47.996;7.786;2023-11-21T00:21:58;6.65;;;2.00;;
16543;SDS011;8384;47.996;7.786;2023-11-21T00:24:23;7.87;;;2.27;;
16543;SDS011;8384;47.996;7.786;2023-11-21T00:26:49;5.53;;;1.90;;
16543;SDS011;8384;47.996;7.786;2023-11-21T00:29:15;5.67;;;1.90;;
16543;SDS011;8384;47.996;7.786;2023-11-21T00:31:42;6.15;;;1.73;;
16543;SDS011;8384;47.996;7.786;2023-11-21T00:34:08;6.20;;;1.90;;
16543;SDS011;8384;47.996;7.786;2023-11-21T00:36:33;4.90;;;1.90;;
16543;SDS011;8384;47.996;7.786;2023-11-21T00:38:58;6.03;;;1.90;;
16543;SDS011;8384;47.996;7.786;2023-11-21T00:41:24;6.37;;;1.80;;
16543;SDS011;8384;47.996;7.786;2023-11-21T00:43:52;7.40;;;1.97;;
16543;SDS011;8384;47.996;7.786;2023-11-21T00:46:18;5.88;;;1.85;;
16543;SDS011;8384;47.996;7.786;2023-11-21T00:48:43;6.60;;;2.00;;
16543;SDS011;8384;47.996;7.786;2023-11-21T00:51:08;6.35;;;1.90;;
16543;SDS011;8384;47.996;7.786;2023-11-21T00:53:33;4.13;;;1.70;;
16543;SDS011;8384;47.996;7.786;2023-11-21T00:55:59;5.82;;;1.70;;
16543;SDS011;8384;47.996;7.786;2023-11-21T00:58:24;3.95;;;1.52;;
16543;SDS011;8384;47.996;7.786;2023-11-21T01:00:50;4.93;;;1.60;;
16543;SDS011;8384;47.996;7.786;2023-11-21T01:03:15;3.50;;;1.40;;
16543;SDS011;8384;47.996;7.786;2023-11-21T01:05:40;6.73;;;1.40;;
16543;SDS011;8384;47.996;7.786;2023-11-21T01:08:06;5.67;;;1.53;;
16543;SDS011;8384;47.996;7.786;2023-11-21T01:10:31;5.37;;;1.40;;
16543;SDS011;8384;47.996;7.786;2023-11-21T01:12:56;5.80;;;1.60;;
16543;SDS011;8384;47.996;7.786;2023-11-21T01:15:22;4.20;;;1.20;;
16543;SDS011;8384;47.996;7.786;2023-11-21T01:17:48;4.10;;;1.30;;
16543;SDS011;8384;47.996;7.786;2023-11-21T01:20:13;2.87;;;1.10;;
16543;SDS011;8384;47.996;7.786;2023-11-21T01:22:39;3.33;;;1.17;;
16543;SDS011;8384;47.996;7.786;2023-11-21T01:25:04;3.63;;;1.30;;
16543;SDS011;8384;47.996;7.786;2023-11-21T01:27:32;3.00;;;1.15;;
16543;SDS011;8384;47.996;7.786;2023-11-21T01:29:59;4.60;;;1.20;;
16543;SDS011;8384;47.996;7.786;2023-11-21T01:32:24;3.20;;;1.00;;
16543;SDS011;8384;47.996;7.786;2023-11-21T01:34:50;3.10;;;1.10;;
16543;SDS011;8384;47.996;7.786;2023-11-21T01:37:15;2.83;;;1.00;;
16543;SDS011;8384;47.996;7.786;2023-11-21T01:39:42;3.10;;;1.13;;
16543;SDS011;8384;47.996;7.786;2023-11-21T01:42:10;3.83;;;1.30;;
16543;SDS011;8384;47.996;7.786;2023-11-21T01:44:37;1.65;;;0.88;;
16543;SDS011;8384;47.996;7.786;2023-11-21T01:47:03;3.30;;;1.13;;
16543;SDS011;8384;47.996;7.786;2023-11-21T01:49:32;2.20;;;0.88;;
16543;SDS011;8384;47.996;7.786;2023-11-21T01:51:58;3.97;;;1.08;;
16543;SDS011;8384;47.996;7.786;2023-11-21T01:54:24;3.83;;;1.00;;
16543;SDS011;8384;47.996;7.786;2023-11-21T01:56:50;2.38;;;1.00;;
16543;SDS011;8384;47.996;7.786;2023-11-21T01:59:17;3.03;;;0.90;;
16543;SDS011;8384;47.996;7.786;2023-11-21T02:01:44;2.22;;;0.90;;
16543;SDS011;8384;47.996;7.786;2023-11-21T02:04:11;3.00;;;1.00;;
16543;SDS011;8384;47.996;7.786;2023-11-21T02:06:37;2.60;;;1.10;;
16543;SDS011;8384;47.996;7.786;2023-11-21T02:09:03;2.57;;;0.90;;
16543;SDS011;8384;47.996;7.786;2023-11-21T02:11:29;3.08;;;1.02;;
16543;SDS011;8384;47.996;7.786;2023-11-21T02:13:55;3.03;;;0.97;;
16543;SDS011;8384;47.996;7.786;2023-11-21T02:16:20;2.40;;;1.00;;
16543;SDS011;8384;47.996;7.786;2023-11-21T02:18:49;3.30;;;0.90;;
16543;SDS011;8384;47.996;7.786;2023-11-21T02:21:16;2.97;;;1.00;;
16543;SDS011;8384;47.996;7.786;2023-11-21T02:23:41;2.13;;;0.70;;
16543;SDS011;8384;47.996;7.786;2023-11-21T02:26:09;3.38;;;1.10;;
16543;SDS011;8384;47.996;7.786;2023-11-21T02:28:35;3.08;;;1.00;;
16543;SDS011;8384;47.996;7.786;2023-11-21T02:31:01;2.73;;;1.00;;
16543;SDS011;8384;47.996;7.786;2023-11-21T02:33:27;3.17;;;0.90;;
16543;SDS011;8384;47.996;7.786;2023-11-21T02:35:53;2.93;;;1.03;;
16543;SDS011;8384;47.996;7.786;2023-11-21T02:38:19;2.72;;;0.82;;
16543;SDS011;8384;47.996;7.786;2023-11-21T02:40:47;2.33;;;1.08;;
16543;SDS011;8384;47.996;7.786;2023-11-21T02:43:13;3.97;;;1.13;;
16543;SDS011;8384;47.996;7.786;2023-11-21T02:45:39;2.13;;;0.80;;
16543;SDS011;8384;47.996;7.786;2023-11-21T02:48:06;3.20;;;1.00;;
16543;SDS011;8384;47.996;7.786;2023-11-21T02:50:32;3.83;;;1.07;;
16543;SDS011;8384;47.996;7.786;2023-11-21T02:52:57;2.03;;;1.00;;
16543;SDS011;8384;47.996;7.786;2023-11-21T02:55:22;2.53;;;1.00;;
16543;SDS011;8384;47.996;7.786;2023-11-21T02:57:49;2.42;;;1.15;;
16543;SDS011;8384;47.996;7.786;2023-11-21T03:00:15;3.10;;;1.03;;
16543;SDS011;8384;47.996;7.786;2023-11-21T03:02:41;2.58;;;0.95;;
16543;SDS011;8384;47.996;7.786;2023-11-21T03:05:09;4.45;;;1.08;;
16543;SDS011;8384;47.996;7.786;2023-11-21T03:07:35;3.22;;;1.10;;
16543;SDS011;8384;47.996;7.786;2023-11-21T03:10:04;3.38;;;1.00;;
16543;SDS011;8384;47.996;7.786;2023-11-21T03:12:31;3.93;;;1.20;;
16543;SDS011;8384;47.996;7.786;2023-11-21T03:14:56;5.10;;;0.90;;
16543;SDS011;8384;47.996;7.786;2023-11-21T03:17:22;2.58;;;0.90;;
16543;SDS011;8384;47.996;7.786;2023-11-21T03:19:47;2.58;;;1.00;;
16543;SDS011;8384;47.996;7.786;2023-11-21T03:22:12;2.55;;;0.80;;
16543;SDS011;8384;47.996;7.786;2023-11-21T03:24:38;2.80;;;0.90;;
16543;SDS011;8384;47.996;7.786;2023-11-21T03:27:03;2.40;;;0.83;;
16543;SDS011;8384;47.996;7.786;2023-11-21T03:29:29;2.95;;;0.80;;
16543;SDS011;8384;47.996;7.786;2023-11-21T03:31:54;2.57;;;0.90;;
16543;SDS011;8384;47.996;7.786;2023-11-21T03:34:23;1.73;;;0.70;;
16543;SDS011;8384;47.996;7.786;2023-11-21T03:36:50;3.22;;;0.90;;
16543;SDS011;8384;47.996;7.786;2023-11-21T03:39:16;2.20;;;0.70;;
16543;SDS011;8384;47.996;7.786;2023-11-21T03:41:41;3.37;;;0.80;;
16543;SDS011;8384;47.996;7.786;2023-11-21T03:44:06;2.57;;;0.87;;
16543;SDS011;8384;47.996;7.786;2023-11-21T03:46:32;3.37;;;1.00;;
16543;SDS011;8384;47.996;7.786;2023-11-21T03:48:57;2.30;;;1.00;;
16543;SDS011;8384;47.996;7.786;2023-11-21T03:51:22;3.53;;;0.90;;
16543;SDS011;8384;47.996;7.786;2023-11-21T03:53:47;2.50;;;1.00;;
16543;SDS011;8384;47.996;7.786;2023-11-21T03:56:13;3.00;;;0.93;;
16543;SDS011;8384;47.996;7.786;2023-11-21T03:58:39;3.33;;;1.00;;
16543;SDS011;8384;47.996;7.786;2023-11-21T04:01:04;3.13;;;1.00;;
16543;SDS011;8384;47.996;7.786;2023-11-21T04:03:29;1.70;;;0.90;;
16543;SDS011;8384;47.996;7.786;2023-11-21T04:05:55;3.87;;;1.00;;
16543;SDS011;8384;47.996;7.786;2023-11-21T04:08:20;3.33;;;1.03;;
16543;SDS011;8384;47.996;7.786;2023-11-21T04:10:45;2.30;;;0.80;;
16543;SDS011;8384;47.996;7.786;2023-11-21T04:13:10;2.40;;;0.70;;
16543;SDS011;8384;47.996;7.786;2023-11-21T04:15:36;2.80;;;0.80;;
16543;SDS011;8384;47.996;7.786;2023-11-21T04:18:01;3.03;;;0.88;;
16543;SDS011;8384;47.996;7.786;2023-11-21T04:20:26;1.83;;;0.70;;
16543;SDS011;8384;47.996;7.786;2023-11-21T04:22:52;2.65;;;0.90;;
16543;SDS011;8384;47.996;7.786;2023-11-21T04:25:17;2.17;;;0.70;;
16543;SDS011;8384;47.996;7.786;2023-11-21T04:27:43;2.58;;;0.90;;
16543;SDS011;8384;47.996;7.786;2023-11-21T04:30:09;3.17;;;0.80;;
16543;SDS011;8384;47.996;7.786;2023-11-21T04:32:39;2.58;;;0.75;;
16543;SDS011;8384;47.996;7.786;2023-11-21T04:35:04;2.90;;;1.00;;
16543;SDS011;8384;47.996;7.786;2023-11-21T04:37:30;2.22;;;1.00;;
16543;SDS011;8384;47.996;7.786;2023-11-21T04:39:55;3.50;;;1.00;;
16543;SDS011;8384;47.996;7.786;2023-11-21T04:42:21;2.93;;;1.00;;
16543;SDS011;8384;47.996;7.786;2023-11-21T04:44:46;3.10;;;0.93;;
16543;SDS011;8384;47.996;7.786;2023-11-21T04:47:12;1.77;;;0.70;;
16543;SDS011;8384;47.996;7.786;2023-11-21T04:49:37;1.77;;;0.80;;
16543;SDS011;8384;47.996;7.786;2023-11-21T04:52:05;2.13;;;0.80;;
16543;SDS011;8384;47.996;7.786;2023-11-21T04:54:32;2.75;;;0.95;;
16543;SDS011;8384;47.996;7.786;2023-11-21T04:56:57;1.90;;;0.90;;
16543;SDS011;8384;47.996;7.786;2023-11-21T04:59:23;2.42;;;0.90;;
16543;SDS011;8384;47.996;7.786;2023-11-21T05:01:52;2.63;;;0.90;;
16543;SDS011;8384;47.996;7.786;2023-11-21T05:04:18;1.55;;;0.63;;
16543;SDS011;8384;47.996;7.786;2023-11-21T05:06:44;3.43;;;1.00;;
16543;SDS011;8384;47.996;7.786;2023-11-21T05:09:09;2.27;;;0.77;;
16543;SDS011;8384;47.996;7.786;2023-11-21T05:11:37;2.22;;;0.85;;
16543;SDS011;8384;47.996;7.786;2023-11-21T05:14:03;2.70;;;0.80;;
16543;SDS011;8384;47.996;7.786;2023-11-21T05:16:29;2.35;;;0.90;;
16543;SDS011;8384;47.996;7.786;2023-11-21T05:18:54;2.50;;;0.70;;
16543;SDS011;8384;47.996;7.786;2023-11-21T05:21:25;3.17;;;0.80;;
16543;SDS011;8384;47.996;7.786;2023-11-21T05:23:50;2.00;;;0.90;;
16543;SDS011;8384;47.996;7.786;2023-11-21T05:26:15;2.97;;;0.90;;
16543;SDS011;8384;47.996;7.786;2023-11-21T05:28:41;3.10;;;1.00;;
16543;SDS011;8384;47.996;7.786;2023-11-21T05:31:06;3.17;;;1.10;;
16543;SDS011;8384;47.996;7.786;2023-11-21T05:33:31;3.73;;;1.00;;
16543;SDS011;8384;47.996;7.786;2023-11-21T05:35:58;3.15;;;1.20;;
16543;SDS011;8384;47.996;7.786;2023-11-21T05:38:23;2.80;;;1.07;;
16543;SDS011;8384;47.996;7.786;2023-11-21T05:40:49;2.60;;;1.20;;
16543;SDS011;8384;47.996;7.786;2023-11-21T05:43:14;2.92;;;1.30;;
16543;SDS011;8384;47.996;7.786;2023-11-21T05:45:40;2.28;;;1.10;;
16543;SDS011;8384;47.996;7.786;2023-11-21T05:48:05;3.23;;;1.30;;
16543;SDS011;8384;47.996;7.786;2023-11-21T05:50:31;3.17;;;1.30;;
16543;SDS011;8384;47.996;7.786;2023-11-21T05:52:57;3.00;;;1.00;;
16543;SDS011;8384;47.996;7.786;2023-11-21T05:55:25;2.72;;;1.20;;
16543;SDS011;8384;47.996;7.786;2023-11-21T05:57:50;4.18;;;1.30;;
16543;SDS011;8384;47.996;7.786;2023-11-21T06:00:16;3.70;;;1.37;;
16543;SDS011;8384;47.996;7.786;2023-11-21T06:02:49;3.60;;;1.40;;
16543;SDS011;8384;47.996;7.786;2023-11-21T06:05:23;3.05;;;1.27;;
16543;SDS011;8384;47.996;7.786;2023-11-21T06:07:49;3.63;;;1.40;;
16543;SDS011;8384;47.996;7.786;2023-11-21T06:10:15;4.10;;;1.50;;
16543;SDS011;8384;47.996;7.786;2023-11-21T06:12:42;3.72;;;1.40;;
16543;SDS011;8384;47.996;7.786;2023-11-21T06:15:08;2.90;;;1.33;;
16543;SDS011;8384;47.996;7.786;2023-11-21T06:17:37;4.07;;;1.60;;
16543;SDS011;8384;47.996;7.786;2023-11-21T06:20:03;2.78;;;1.42;;
16543;SDS011;8384;47.996;7.786;2023-11-21T06:22:44;4.18;;;1.63;;
16543;SDS011;8384;47.996;7.786;2023-11-21T06:25:11;4.50;;;1.60;;
16543;SDS011;8384;47.996;7.786;2023-11-21T06:27:38;2.70;;;1.50;;
16543;SDS011;8384;47.996;7.786;2023-11-21T06:30:05;2.75;;;1.35;;
16543;SDS011;8384;47.996;7.786;2023-11-21T06:32:35;3.70;;;1.70;;
16543;SDS011;8384;47.996;7.786;2023-11-21T06:35:01;3.78;;;1.75;;
16543;SDS011;8384;47.996;7.786;2023-11-21T06:37:29;3.33;;;1.85;;
16543;SDS011;8384;47.996;7.786;2023-11-21T06:39:54;2.80;;;1.80;;
16543;SDS011;8384;47.996;7.786;2023-11-21T06:42:23;3.22;;;1.92;;
16543;SDS011;8384;47.996;7.786;2023-11-21T06:44:49;3.03;;;1.90;;
16543;SDS011;8384;47.996;7.786;2023-11-21T06:47:16;3.60;;;1.90;;
16543;SDS011;8384;47.996;7.786;2023-11-21T06:49:42;4.75;;;2.28;;
16543;SDS011;8384;47.996;7.786;2023-11-21T06:52:08;3.22;;;2.33;;
16543;SDS011;8384;47.996;7.786;2023-11-21T06:54:34;4.00;;;2.20;;
16543;SDS011;8384;47.996;7.786;2023-11-21T06:56:59;3.73;;;2.20;;
16543;SDS011;8384;47.996;7.786;2023-11-21T06:59:25;3.78;;;2.30;;
16543;SDS011;8384;47.996;7.786;2023-11-21T07:01:51;2.87;;;2.10;;
16543;SDS011;8384;47.996;7.786;2023-11-21T07:04:16;3.87;;;2.37;;
16543;SDS011;8384;47.996;7.786;2023-11-21T07:06:41;2.63;;;2.03;;
16543;SDS011;8384;47.996;7.786;2023-11-21T07:09:08;4.70;;;2.30;;
16543;SDS011;8384;47.996;7.786;2023-11-21T07:11:34;3.65;;;2.00;;
16543;SDS011;8384;47.996;7.786;2023-11-21T07:14:03;2.65;;;1.83;;
16543;SDS011;8384;47.996;7.786;2023-11-21T07:16:34;2.60;;;2.22;;
16543;SDS011;8384;47.996;7.786;2023-11-21T07:19:02;3.27;;;2.10;;
16543;SDS011;8384;47.996;7.786;2023-11-21T07:21:31;2.33;;;2.13;;
16543;SDS011;8384;47.996;7.786;2023-11-21T07:23:57;2.58;;;2.10;;
16543;SDS011;8384;47.996;7.786;2023-11-21T07:26:22;2.40;;;2.20;;
16543;SDS011;8384;47.996;7.786;2023-11-21T07:28:49;2.85;;;2.55;;
16543;SDS011;8384;47.996;7.786;2023-11-21T07:31:14;4.00;;;2.80;;
16543;SDS011;8384;47.996;7.786;2023-11-21T07:33:40;4.53;;;2.97;;
16543;SDS011;8384;47.996;7.786;2023-11-21T07:36:05;3.13;;;2.83;;
16543;SDS011;8384;47.996;7.786;2023-11-21T07:38:31;3.35;;;2.60;;
16543;SDS011;8384;47.996;7.786;2023-11-21T07:40:58;2.83;;;2.53;;
16543;SDS011;8384;47.996;7.786;2023-11-21T07:43:26;3.08;;;2.40;;
16543;SDS011;8384;47.996;7.786;2023-11-21T07:45:51;2.93;;;2.20;;
16543;SDS011;8384;47.996;7.786;2023-11-21T07:48:17;3.40;;;2.00;;
16543;SDS011;8384;47.996;7.786;2023-11-21T07:50:42;2.78;;;1.85;;
16543;SDS011;8384;47.996;7.786;2023-11-21T07:53:08;2.67;;;1.67;;
16543;SDS011;8384;47.996;7.786;2023-11-21T07:55:34;3.30;;;1.90;;
16543;SDS011;8384;47.996;7.786;2023-11-21T07:58:01;3.70;;;2.10;;
16543;SDS011;8384;47.996;7.786;2023-11-21T08:00:26;2.90;;;1.47;;
16543;SDS011;8384;47.996;7.786;2023-11-21T08:02:55;2.27;;;1.57;;
16543;SDS011;8384;47.996;7.786;2023-11-21T08:05:20;2.28;;;1.70;;
16543;SDS011;8384;47.996;7.786;2023-11-21T08:07:46;2.35;;;1.70;;
16543;SDS011;8384;47.996;7.786;2023-11-21T08:10:11;2.27;;;1.80;;
16543;SDS011;8384;47.996;7.786;2023-11-21T08:12:36;1.90;;;1.70;;
16543;SDS011;8384;47.996;7.786;2023-11-21T08:15:02;2.90;;;1.97;;
16543;SDS011;8384;47.996;7.786;2023-11-21T08:17:28;3.28;;;2.00;;
16543;SDS011;8384;47.996;7.786;2023-11-21T08:19:54;2.88;;;2.00;;
16543;SDS011;8384;47.996;7.786;2023-11-21T08:22:19;2.92;;;2.20;;
16543;SDS011;8384;47.996;7.786;2023-11-21T08:24:45;2.78;;;2.20;;
16543;SDS011;8384;47.996;7.786;2023-11-21T08:27:12;3.38;;;2.58;;
16543;SDS011;8384;47.996;7.786;2023-11-21T08:29:40;4.57;;;3.00;;
16543;SDS011;8384;47.996;7.786;2023-11-21T08:32:05;3.30;;;3.00;;
16543;SDS011;8384;47.996;7.786;2023-11-21T08:34:31;4.27;;;3.10;;
16543;SDS011;8384;47.996;7.786;2023-11-21T08:36:56;3.33;;;3.00;;
16543;SDS011;8384;47.996;7.786;2023-11-21T08:39:22;3.15;;;2.63;;
16543;SDS011;8384;47.996;7.786;2023-11-21T08:41:49;4.18;;;2.50;;
16543;SDS011;8384;47.996;7.786;2023-11-21T08:44:16;2.70;;;2.50;;
16543;SDS011;8384;47.996;7.786;2023-11-21T08:46:43;2.78;;;2.30;;
16543;SDS011;8384;47.996;7.786;2023-11-21T08:49:12;4.03;;;2.17;;
16543;SDS011;8384;47.996;7.786;2023-11-21T08:51:37;1.90;;;1.70;;
16543;SDS011;8384;47.996;7.786;2023-11-21T08:54:03;4.18;;;3.45;;
16543;SDS011;8384;47.996;7.786;2023-11-21T08:56:32;16.85;;;15.13;;
16543;SDS011;8384;47.996;7.786;2023-11-21T08:58:58;8.97;;;8.10;;
16543;SDS011;8384;47.996;7.786;2023-11-21T09:01:25;4.15;;;3.60;;
16543;SDS011;8384;47.996;7.786;2023-11-21T09:03:51;5.05;;;4.25;;
16543;SDS011;8384;47.996;7.786;2023-11-21T09:06:16;4.93;;;3.70;;
16543;SDS011;8384;47.996;7.786;2023-11-21T09:08:41;4.43;;;3.20;;
16543;SDS011;8384;47.996;7.786;2023-11-21T09:11:08;3.85;;;3.50;;
16543;SDS011;8384;47.996;7.786;2023-11-21T09:13:33;3.87;;;3.50;;
16543;SDS011;8384;47.996;7.786;2023-11-21T09:15:59;4.00;;;3.60;;
16543;SDS011;8384;47.996;7.786;2023-11-21T09:18:25;4.90;;;3.63;;
16543;SDS011;8384;47.996;7.786;2023-11-21T09:20:50;3.43;;;2.90;;
16543;SDS011;8384;47.996;7.786;2023-11-21T09:23:15;4.17;;;3.60;;
16543;SDS011;8384;47.996;7.786;2023-11-21T09:25:41;2.87;;;2.40;;
16543;SDS011;8384;47.996;7.786;2023-11-21T09:28:06;3.93;;;2.20;;
16543;SDS011;8384;47.996;7.786;2023-11-21T09:30:34;2.35;;;2.00;;
16543;SDS011;8384;47.996;7.786;2023-11-21T09:33:01;2.90;;;2.60;;
16543;SDS011;8384;47.996;7.786;2023-11-21T09:35:26;3.33;;;2.53;;
16543;SDS011;8384;47.996;7.786;2023-11-21T09:37:52;2.72;;;2.50;;
16543;SDS011;8384;47.996;7.786;2023-11-21T09:40:20;2.97;;;2.70;;
16543;SDS011;8384;47.996;7.786;2023-11-21T09:42:56;3.40;;;2.50;;
16543;SDS011;8384;47.996;7.786;2023-11-21T09:45:26;3.10;;;2.40;;
16543;SDS011;8384;47.996;7.786;2023-11-21T09:47:56;2.80;;;2.30;;
16543;SDS011;8384;47.996;7.786;2023-11-21T09:50:22;3.28;;;2.50;;
16543;SDS011;8384;47.996;7.786;2023-11-21T09:53:07;2.87;;;2.30;;
16543;SDS011;8384;47.996;7.786;2023-11-21T09:55:40;4.15;;;2.40;;
16543;SDS011;8384;47.996;7.786;2023-11-21T09:58:10;4.07;;;3.03;;
16543;SDS011;8384;47.996;7.786;2023-11-21T10:00:42;3.05;;;2.85;;
16543;SDS011;8384;47.996;7.786;2023-11-21T10:03:08;2.85;;;2.40;;
16543;SDS011;8384;47.996;7.786;2023-11-21T10:05:35;2.75;;;2.30;;
16543;SDS011;8384;47.996;7.786;2023-11-21T10:08:01;2.47;;;1.77;;
16543;SDS011;8384;47.996;7.786;2023-11-21T10:10:29;1.73;;;1.55;;
16543;SDS011;8384;47.996;7.786;2023-11-21T10:12:57;2.42;;;1.40;;
16543;SDS011;8384;47.996;7.786;2023-11-21T10:15:27;2.42;;;1.30;;
16543;SDS011;8384;47.996;7.786;2023-11-21T10:17:54;1.73;;;1.25;;
16543;SDS011;8384;47.996;7.786;2023-11-21T10:20:20;2.90;;;1.45;;
16543;SDS011;8384;47.996;7.786;2023-11-21T10:22:50;2.10;;;1.60;;
16543;SDS011;8384;47.996;7.786;2023-11-21T10:25:16;1.90;;;1.50;;
16543;SDS011;8384;47.996;7.786;2023-11-21T10:27:43;2.55;;;2.08;;
16543;SDS011;8384;47.996;7.786;2023-11-21T10:30:12;1.97;;;1.60;;
16543;SDS011;8384;47.996;7.786;2023-11-21T10:32:38;2.43;;;1.93;;
16543;SDS011;8384;47.996;7.786;2023-11-21T10:35:07;3.13;;;1.70;;
16543;SDS011;8384;47.996;7.786;2023-11-21T10:37:35;3.08;;;1.60;;
16543;SDS011;8384;47.996;7.786;2023-11-21T10:40:04;3.03;;;1.85;;
16543;SDS011;8384;47.996;7.786;2023-11-21T10:42:32;1.33;;;1.23;;
16543;SDS011;8384;47.996;7.786;2023-11-21T10:44:57;1.83;;;1.30;;
16543;SDS011;8384;47.996;7.786;2023-11-21T10:47:23;1.97;;;1.40;;
16543;SDS011;8384;47.996;7.786;2023-11-21T10:49:49;1.90;;;1.40;;
16543;SDS011;8384;47.996;7.786;2023-11-21T10:52:14;1.47;;;1.23;;
16543;SDS011;8384;47.996;7.786;2023-11-21T10:54:42;1.30;;;1.15;;
16543;SDS011;8384;47.996;7.786;2023-11-21T10:57:08;1.70;;;1.23;;
16543;SDS011;8384;47.996;7.786;2023-11-21T10:59:35;1.70;;;1.10;;
16543;SDS011;8384;47.996;7.786;2023-11-21T11:02:01;1.90;;;1.33;;
16543;SDS011;8384;47.996;7.786;2023-11-21T11:04:35;1.80;;;1.70;;
16543;SDS011;8384;47.996;7.786;2023-11-21T11:07:03;2.17;;;1.77;;
16543;SDS011;8384;47.996;7.786;2023-11-21T11:09:31;2.78;;;1.77;;
16543;SDS011;8384;47.996;7.786;2023-11-21T11:12:01;2.00;;;1.80;;
16543;SDS011;8384;47.996;7.786;2023-11-21T11:14:27;3.30;;;2.08;;
16543;SDS011;8384;47.996;7.786;2023-11-21T11:16:54;2.00;;;1.90;;
16543;SDS011;8384;47.996;7.786;2023-11-21T11:19:20;2.50;;;2.00;;
16543;SDS011;8384;47.996;7.786;2023-11-21T11:22:00;2.43;;;2.20;;
16543;SDS011;8384;47.996;7.786;2023-11-21T11:27:37;2.05;;;1.80;;
16543;SDS011;8384;47.996;7.786;2023-11-21T11:33:11;2.90;;;1.90;;
16543;SDS011;8384;47.996;7.786;2023-11-21T11:35:54;2.08;;;1.85;;
16543;SDS011;8384;47.996;7.786;2023-11-21T11:38:30;1.77;;;1.43;;
16543;SDS011;8384;47.996;7.786;2023-11-21T11:40:57;2.35;;;1.60;;
16543;SDS011;8384;47.996;7.786;2023-11-21T11:43:27;2.90;;;2.10;;
16543;SDS011;8384;47.996;7.786;2023-11-21T11:45:56;2.75;;;1.92;;
16543;SDS011;8384;47.996;7.786;2023-11-21T11:48:23;2.97;;;2.10;;
16543;SDS011;8384;47.996;7.786;2023-11-21T11:51:02;3.87;;;2.10;;
16543;SDS011;8384;47.996;7.786;2023-11-21T11:53:40;2.72;;;1.83;;
16543;SDS011;8384;47.996;7.786;2023-11-21T11:58:50;1.50;;;1.40;;
16543;SDS011;8384;47.996;7.786;2023-11-21T12:01:17;1.40;;;1.30;;
16543;SDS011;8384;47.996;7.786;2023-11-21T12:03:44;1.75;;;1.58;;
16543;SDS011;8384;47.996;7.786;2023-11-21T12:06:09;2.10;;;1.60;;
16543;SDS011;8384;47.996;7.786;2023-11-21T12:08:36;1.70;;;1.60;;
16543;SDS011;8384;47.996;7.786;2023-11-21T12:11:02;1.67;;;1.30;;
16543;SDS011;8384;47.996;7.786;2023-11-21T12:13:28;1.80;;;1.48;;
16543;SDS011;8384;47.996;7.786;2023-11-21T12:15:53;1.93;;;1.37;;
16543;SDS011;8384;47.996;7.786;2023-11-21T12:18:19;2.30;;;1.50;;
16543;SDS011;8384;47.996;7.786;2023-11-21T12:20:46;1.65;;;1.40;;
16543;SDS011;8384;47.996;7.786;2023-11-21T12:23:13;6.65;;;6.15;;
16543;SDS011;8384;47.996;7.786;2023-11-21T12:25:41;2.08;;;1.77;;
16543;SDS011;8384;47.996;7.786;2023-11-21T12:28:07;1.60;;;1.50;;
16543;SDS011;8384;47.996;7.786;2023-11-21T12:30:33;2.20;;;1.90;;
16543;SDS011;8384;47.996;7.786;2023-11-21T12:33:00;1.60;;;1.50;;
16543;SDS011;8384;47.996;7.786;2023-11-21T12:35:27;1.80;;;1.70;;
16543;SDS011;8384;47.996;7.786;2023-11-21T12:37:55;2.30;;;1.90;;
16543;SDS011;8384;47.996;7.786;2023-11-21T12:40:24;1.87;;;1.77;;
16543;SDS011;8384;47.996;7.786;2023-11-21T12:42:51;2.00;;;1.52;;
16543;SDS011;8384;47.996;7.786;2023-11-21T12:47:46;3.03;;;1.80;;
16543;SDS011;8384;47.996;7.786;2023-11-21T12:50:11;2.40;;;2.15;;
16543;SDS011;8384;47.996;7.786;2023-11-21T12:52:39;2.05;;;1.80;;
16543;SDS011;8384;47.996;7.786;2023-11-21T12:55:06;1.97;;;1.83;;
16543;SDS011;8384;47.996;7.786;2023-11-21T12:57:34;2.38;;;2.00;;
16543;SDS011;8384;47.996;7.786;2023-11-21T13:00:03;2.30;;;2.10;;
16543;SDS011;8384;47.996;7.786;2023-11-21T13:02:36;2.20;;;1.90;;
16543;SDS011;8384;47.996;7.786;2023-11-21T13:05:03;2.25;;;2.08;;
16543;SDS011;8384;47.996;7.786;2023-11-21T13:07:31;2.10;;;2.00;;
16543;SDS011;8384;47.996;7.786;2023-11-21T13:10:11;1.95;;;1.80;;
16543;SDS011;8384;47.996;7.786;2023-11-21T13:12:42;2.47;;;2.13;;
16543;SDS011;8384;47.996;7.786;2023-11-21T13:15:09;2.10;;;2.00;;
16543;SDS011;8384;47.996;7.786;2023-11-21T13:17:35;2.30;;;2.17;;
16543;SDS011;8384;47.996;7.786;2023-11-21T13:20:00;2.43;;;2.20;;
16543;SDS011;8384;47.996;7.786;2023-11-21T13:22:30;2.28;;;2.10;;
16543;SDS011;8384;47.996;7.786;2023-11-21T13:24:57;2.30;;;2.10;;
16543;SDS011;8384;47.996;7.786;2023-11-21T13:27:23;3.10;;;2.20;;
16543;SDS011;8384;47.996;7.786;2023-11-21T13:29:50;2.20;;;2.00;;
16543;SDS011;8384;47.996;7.786;2023-11-21T13:32:16;2.13;;;1.92;;
16543;SDS011;8384;47.996;7.786;2023-11-21T13:34:45;2.15;;;1.80;;
16543;SDS011;8384;47.996;7.786;2023-11-21T13:37:12;2.05;;;1.85;;
16543;SDS011;8384;47.996;7.786;2023-11-21T13:39:37;2.13;;;1.93;;
16543;SDS011;8384;47.996;7.786;2023-11-21T13:42:09;2.10;;;2.00;;
16543;SDS011;8384;47.996;7.786;2023-11-21T13:44:36;2.50;;;2.30;;
16543;SDS011;8384;47.996;7.786;2023-11-21T13:47:03;2.22;;;2.13;;
16543;SDS011;8384;47.996;7.786;2023-11-21T13:49:30;2.67;;;2.47;;
16543;SDS011;8384;47.996;7.786;2023-11-21T13:52:00;2.72;;;2.53;;
16543;SDS011;8384;47.996;7.786;2023-11-21T13:54:27;2.60;;;2.40;;
16543;SDS011;8384;47.996;7.786;2023-11-21T13:56:53;2.33;;;2.13;;
16543;SDS011;8384;47.996;7.786;2023-11-21T13:59:19;2.90;;;2.70;;
16543;SDS011;8384;47.996;7.786;2023-11-21T14:01:50;3.15;;;2.85;;
16543;SDS011;8384;47.996;7.786;2023-11-21T14:04:24;3.10;;;2.90;;
16543;SDS011;8384;47.996;7.786;2023-11-21T14:07:08;3.15;;;2.88;;
16543;SDS011;8384;47.996;7.786;2023-11-21T14:09:50;3.42;;;3.13;;
16543;SDS011;8384;47.996;7.786;2023-11-21T14:12:17;4.55;;;4.10;;
16543;SDS011;8384;47.996;7.786;2023-11-21T14:14:42;4.23;;;3.83;;
16543;SDS011;8384;47.996;7.786;2023-11-21T14:17:09;4.22;;;3.83;;
16543;SDS011;8384;47.996;7.786;2023-11-21T14:19:35;3.70;;;3.40;;
16543;SDS011;8384;47.996;7.786;2023-11-21T14:22:05;3.60;;;3.00;;
16543;SDS011;8384;47.996;7.786;2023-11-21T14:24:30;2.72;;;2.53;;
16543;SDS011;8384;47.996;7.786;2023-11-21T14:26:57;2.70;;;2.50;;
16543;SDS011;8384;47.996;7.786;2023-11-21T14:29:22;3.17;;;2.73;;
16543;SDS011;8384;47.996;7.786;2023-11-21T14:31:48;2.67;;;2.47;;
16543;SDS011;8384;47.996;7.786;2023-11-21T14:34:16;2.38;;;2.17;;
16543;SDS011;8384;47.996;7.786;2023-11-21T14:36:42;2.72;;;2.53;;
16543;SDS011;8384;47.996;7.786;2023-11-21T14:39:09;2.90;;;2.70;;
16543;SDS011;8384;47.996;7.786;2023-11-21T14:41:45;3.47;;;3.05;;
16543;SDS011;8384;47.996;7.786;2023-11-21T14:44:11;3.67;;;3.37;;
16543;SDS011;8384;47.996;7.786;2023-11-21T14:46:37;3.72;;;3.42;;
16543;SDS011;8384;47.996;7.786;2023-11-21T14:49:04;4.25;;;3.85;;
16543;SDS011;8384;47.996;7.786;2023-11-21T14:51:46;3.42;;;3.15;;
16543;SDS011;8384;47.996;7.786;2023-11-21T14:54:42;3.80;;;3.50;;
16543;SDS011;8384;47.996;7.786;2023-11-21T14:57:12;4.63;;;4.28;;
16543;SDS011;8384;47.996;7.786;2023-11-21T14:59:43;4.33;;;3.93;;
16543;SDS011;8384;47.996;7.786;2023-11-21T15:02:15;4.20;;;3.90;;
16543;SDS011;8384;47.996;7.786;2023-11-21T15:04:45;3.90;;;3.60;;
16543;SDS011;8384;47.996;7.786;2023-11-21T15:07:11;4.23;;;3.83;;
16543;SDS011;8384;47.996;7.786;2023-11-21T15:09:36;4.27;;;3.97;;
16543;SDS011;8384;47.996;7.786;2023-11-21T15:12:09;4.78;;;4.38;;